createdAt,value
2019-05-18T00:02:16.897Z,19.00
2019-05-18T00:05:12.813Z,20.07
2019-05-18T00:08:12.277Z,20.70
2019-05-18T00:11:11.520Z,21.40
2019-05-18T00:13:47.084Z,19.37
2019-05-18T00:16:37.676Z,26.30
2019-05-18T00:19:13.653Z,19.07
2019-05-18T00:22:02.914Z,20.10
2019-05-18T00:25:07.005Z,18.83
2019-05-18T00:27:52.877Z,22.27
2019-05-18T00:30:43.527Z,20.50
2019-05-18T00:33:53.910Z,23.63
2019-05-18T00:36:33.278Z,21.33
2019-05-18T00:39:06.329Z,20.07
2019-05-18T00:41:51.005Z,20.47
2019-05-18T00:44:40.477Z,19.13
2019-05-18T00:47:22.027Z,22.27
2019-05-18T00:50:01.024Z,23.23
2019-05-18T00:52:36.492Z,21.17
2019-05-18T00:55:08.543Z,21.40
2019-05-18T00:57:45.806Z,19.83
2019-05-18T01:00:22.492Z,19.30
2019-05-18T01:02:57.632Z,25.20
2019-05-18T01:05:30.874Z,19.97
2019-05-18T01:08:08.201Z,19.73
2019-05-18T01:10:49.194Z,19.37
2019-05-18T01:13:39.652Z,24.30
2019-05-18T01:16:08.631Z,22.80
2019-05-18T01:18:47.194Z,22.63
2019-05-18T01:21:25.359Z,22.37
2019-05-18T01:24:10.294Z,26.33
2019-05-18T01:26:43.354Z,20.20
2019-05-18T01:29:25.204Z,27.40
2019-05-18T01:32:04.612Z,23.73
2019-05-18T01:34:44.163Z,24.60
2019-05-18T01:37:24.792Z,26.67
2019-05-18T01:40:07.649Z,22.83
2019-05-18T01:42:42.451Z,20.90
2019-05-18T01:45:19.724Z,20.43
2019-05-18T01:50:37.390Z,24.83
2019-05-18T01:53:17.566Z,22.07
2019-05-18T01:55:56.713Z,26.20
2019-05-18T01:58:33.662Z,20.80
2019-05-18T02:01:06.654Z,22.43
2019-05-18T02:03:44.939Z,25.83
2019-05-18T02:06:19.654Z,23.70
2019-05-18T02:08:55.286Z,19.80
2019-05-18T02:11:35.235Z,28.53
2019-05-18T02:14:20.159Z,21.80
2019-05-18T02:16:55.902Z,19.70
2019-05-18T02:19:36.847Z,19.67
2019-05-18T02:22:12.186Z,20.50
2019-05-18T02:25:08.179Z,26.43
2019-05-18T02:27:47.472Z,21.97
2019-05-18T02:30:23.226Z,21.53
2019-05-18T02:32:56.018Z,26.12
2019-05-18T02:35:33.676Z,19.80
2019-05-18T02:38:26.650Z,23.17
2019-05-18T02:41:13.486Z,23.00
2019-05-18T02:43:54.485Z,29.67
2019-05-18T02:46:34.347Z,25.70
2019-05-18T02:49:24.831Z,29.23
2019-05-18T02:52:19.445Z,26.87
2019-05-18T02:54:57.489Z,29.72
2019-05-18T02:57:34.409Z,25.77
2019-05-18T03:00:12.212Z,26.90
2019-05-18T03:03:12.597Z,27.67
2019-05-18T03:05:51.604Z,28.67
2019-05-18T03:08:32.038Z,27.30
2019-05-18T03:11:21.969Z,24.57
2019-05-18T03:13:58.778Z,26.77
2019-05-18T03:16:47.220Z,24.57
2019-05-18T03:19:18.245Z,27.27
2019-05-18T03:21:53.968Z,29.23
2019-05-18T03:24:31.254Z,28.97
2019-05-18T03:27:03.464Z,27.33
2019-05-18T03:29:43.099Z,26.60
2019-05-18T03:32:22.915Z,25.43
2019-05-18T03:35:05.172Z,25.10
2019-05-18T03:37:45.348Z,34.43
2019-05-18T03:40:30.427Z,27.10
2019-05-18T03:43:02.438Z,28.07
2019-05-18T03:45:35.440Z,28.20
2019-05-18T03:48:11.364Z,31.63
2019-05-18T03:50:42.423Z,31.77
2019-05-18T03:53:43.680Z,31.17
2019-05-18T03:56:48.285Z,34.40
2019-05-18T03:59:30.031Z,32.37
2019-05-18T04:02:13.236Z,42.40
2019-05-18T04:04:50.562Z,30.25
2019-05-18T04:07:33.372Z,36.77
2019-05-18T04:10:09.298Z,31.10
2019-05-18T04:13:02.392Z,29.20
2019-05-18T04:15:39.095Z,31.87
2019-05-18T04:18:15.733Z,34.17
2019-05-18T04:20:50.110Z,34.20
2019-05-18T04:23:22.783Z,30.33
2019-05-18T04:26:01.065Z,29.03
2019-05-18T04:28:34.114Z,26.83
2019-05-18T04:31:06.390Z,30.50
2019-05-18T04:33:47.072Z,26.03
2019-05-18T04:36:24.305Z,32.67
2019-05-18T04:39:03.308Z,26.87
2019-05-18T04:41:44.429Z,25.60
2019-05-18T04:44:22.356Z,25.80
2019-05-18T04:47:01.679Z,24.60
2019-05-18T04:49:43.348Z,25.13
2019-05-18T04:52:10.554Z,25.47
2019-05-18T04:54:45.821Z,24.20
2019-05-18T04:57:24.076Z,25.83
2019-05-18T05:00:01.720Z,25.90
2019-05-18T05:02:33.240Z,22.63
2019-05-18T05:05:07.727Z,23.80
2019-05-18T05:07:59.060Z,16.40
2019-05-18T05:10:49.034Z,16.77
2019-05-18T05:13:29.750Z,16.70
2019-05-18T05:16:10.676Z,15.50
2019-05-18T05:19:21.799Z,19.43
2019-05-18T05:22:04.676Z,18.03
2019-05-18T05:24:47.126Z,20.67
2019-05-18T05:27:27.509Z,18.07
2019-05-18T05:30:00.356Z,17.70
2019-05-18T05:33:21.122Z,21.20
2019-05-18T05:36:35.904Z,21.43
2019-05-18T05:39:17.826Z,21.40
2019-05-18T05:42:10.511Z,21.47
2019-05-18T05:45:06.883Z,21.77
2019-05-18T05:47:47.914Z,19.23
2019-05-18T05:50:36.088Z,22.63
2019-05-18T05:53:22.311Z,19.47
2019-05-18T05:56:06.161Z,23.23
2019-05-18T05:59:05.395Z,27.73
2019-05-18T06:01:56.709Z,25.10
2019-05-18T06:04:30.086Z,24.87
2019-05-18T06:07:35.636Z,22.67
2019-05-18T06:09:46.962Z,22.23
2019-05-18T06:12:35.191Z,24.50
2019-05-18T06:15:21.265Z,21.10
2019-05-18T06:18:07.320Z,20.23
2019-05-18T06:21:12.801Z,26.43
2019-05-18T06:23:49.497Z,23.33
2019-05-18T06:26:45.516Z,20.67
2019-05-18T06:29:44.069Z,24.37
2019-05-18T06:32:48.987Z,21.20
2019-05-18T06:35:34.728Z,21.13
2019-05-18T06:38:30.379Z,21.43
2019-05-18T06:41:16.050Z,21.33
2019-05-18T06:43:51.315Z,22.23
2019-05-18T06:46:38.230Z,29.40
2019-05-18T06:49:40.521Z,24.13
2019-05-18T06:52:39.988Z,29.43
2019-05-18T06:55:33.910Z,19.63
2019-05-18T06:58:12.943Z,23.93
2019-05-18T07:00:47.038Z,19.10
2019-05-18T07:03:50.905Z,20.63
2019-05-18T07:06:52.376Z,21.20
2019-05-18T07:09:30.856Z,20.87
2019-05-18T07:12:23.523Z,30.90
2019-05-18T07:15:06.059Z,22.17
2019-05-18T07:17:59.473Z,27.33
2019-05-18T07:20:45.777Z,30.67
2019-05-18T07:26:57.557Z,58.20
2019-05-18T07:29:48.498Z,22.40
2019-05-18T07:32:45.228Z,28.30
2019-05-18T07:35:30.810Z,25.77
2019-05-18T07:39:31.368Z,30.80
2019-05-18T07:41:45.871Z,23.90
2019-05-18T07:44:43.096Z,27.13
2019-05-18T07:47:47.508Z,29.90
2019-05-18T07:50:42.488Z,29.10
2019-05-18T07:54:00.834Z,32.17
2019-05-18T07:57:05.487Z,23.17
2019-05-18T07:59:51.676Z,27.00
2019-05-18T08:02:24.956Z,29.37
2019-05-18T08:05:42.529Z,24.60
2019-05-18T08:08:30.311Z,22.73
2019-05-18T08:14:43.197Z,29.30
2019-05-18T08:17:44.428Z,22.60
2019-05-18T08:20:21.978Z,22.93
2019-05-18T08:23:00.067Z,22.97
2019-05-18T08:26:00.326Z,23.47
2019-05-18T08:29:18.568Z,21.70
2019-05-18T08:32:18.095Z,23.73
2019-05-18T08:35:10.287Z,19.00
2019-05-18T08:38:22.757Z,16.13
2019-05-18T08:41:04.138Z,18.20
2019-05-18T08:44:00.146Z,17.97
2019-05-18T08:46:49.971Z,14.57
2019-05-18T08:53:03.142Z,8.60
2019-05-18T08:55:40.319Z,11.63
2019-05-18T08:58:38.550Z,8.73
2019-05-18T09:04:36.438Z,9.40
2019-05-18T09:07:45.399Z,9.57
2019-05-18T09:10:36.205Z,9.33
2019-05-18T09:13:24.939Z,10.50
2019-05-18T09:16:17.031Z,8.90
2019-05-18T09:19:25.286Z,13.50
2019-05-18T09:22:36.371Z,13.70
2019-05-18T09:25:37.507Z,9.43
2019-05-18T09:28:42.582Z,12.03
2019-05-18T09:31:21.703Z,8.60
2019-05-18T09:34:02.165Z,10.57
2019-05-18T09:36:47.442Z,10.73
2019-05-18T09:39:36.482Z,12.20
2019-05-18T09:42:30.938Z,10.03
2019-05-18T09:45:42.574Z,8.50
2019-05-18T09:48:34.094Z,8.80
2019-05-18T09:52:07.110Z,10.37
2019-05-18T09:55:00.738Z,9.57
2019-05-18T09:58:04.255Z,10.73
2019-05-18T10:01:26.457Z,13.17
2019-05-18T10:04:06.263Z,10.63
2019-05-18T10:07:21.958Z,12.60
2019-05-18T10:10:12.417Z,8.17
2019-05-18T10:13:05.302Z,7.77
2019-05-18T10:16:03.760Z,8.00
2019-05-18T10:19:37.705Z,8.23
2019-05-18T10:21:56.735Z,12.70
2019-05-18T10:24:54.588Z,10.00
2019-05-18T10:28:10.488Z,8.80
2019-05-18T10:31:22.868Z,12.10
2019-05-18T10:34:05.682Z,10.77
2019-05-18T10:37:07.222Z,9.27
2019-05-18T10:40:13.473Z,8.33
2019-05-18T10:43:17.864Z,10.10
2019-05-18T10:46:43.592Z,8.83
2019-05-18T10:50:18.798Z,8.67
2019-05-18T10:53:27.805Z,8.40
2019-05-18T10:56:27.477Z,10.20
2019-05-18T10:59:39.615Z,9.60
2019-05-18T11:02:33.094Z,14.03
2019-05-18T11:05:52.278Z,10.23
2019-05-18T11:09:03.751Z,8.50
2019-05-18T11:11:41.126Z,10.38
2019-05-18T11:14:35.929Z,8.80
2019-05-18T11:17:43.095Z,10.90
2019-05-18T11:20:22.431Z,18.13
2019-05-18T11:23:14.631Z,14.93
2019-05-18T11:26:02.302Z,12.30
2019-05-18T11:29:13.087Z,9.70
2019-05-18T11:32:07.209Z,10.17
2019-05-18T11:35:27.388Z,11.93
2019-05-18T11:37:45.594Z,12.20
2019-05-18T11:41:06.747Z,9.63
2019-05-18T11:44:16.197Z,8.53
2019-05-18T11:51:16.809Z,10.60
2019-05-18T11:57:51.559Z,8.93
2019-05-18T12:01:00.080Z,9.33
2019-05-18T12:04:06.233Z,8.97
2019-05-18T12:10:08.831Z,7.77
2019-05-18T12:16:34.364Z,7.20
2019-05-18T12:19:56.883Z,5.60
2019-05-18T12:22:42.125Z,5.50
2019-05-18T12:26:00.292Z,5.60
2019-05-18T12:28:56.262Z,4.30
2019-05-18T12:31:54.550Z,4.33
2019-05-18T12:34:52.949Z,4.33
2019-05-18T12:37:39.063Z,4.97
2019-05-18T12:40:49.617Z,6.50
2019-05-18T12:44:07.919Z,6.80
2019-05-18T12:51:19.789Z,4.67
2019-05-18T12:57:39.327Z,4.07
2019-05-18T12:57:51.366Z,4.50
2019-05-18T13:00:44.125Z,4.03
2019-05-18T13:03:36.780Z,5.40
2019-05-18T13:10:40.864Z,4.73
2019-05-18T13:13:57.820Z,4.67
2019-05-18T13:17:05.484Z,4.50
2019-05-18T13:19:56.480Z,4.20
2019-05-18T13:26:45.685Z,5.20
2019-05-18T13:34:11.071Z,10.20
2019-05-18T13:37:20.176Z,6.00
2019-05-18T13:40:26.429Z,6.37
2019-05-18T13:43:29.366Z,5.90
2019-05-18T13:46:56.541Z,6.20
2019-05-18T13:49:57.046Z,7.27
2019-05-18T13:53:04.556Z,4.40
2019-05-18T13:56:09.327Z,6.57
2019-05-18T13:59:04.451Z,4.43
2019-05-18T14:06:14.262Z,7.77
2019-05-18T14:09:11.760Z,6.63
2019-05-18T14:12:23.456Z,4.03
2019-05-18T14:15:23.007Z,6.97
2019-05-18T14:18:24.387Z,8.20
2019-05-18T14:21:02.825Z,7.60
2019-05-18T14:28:17.460Z,4.00
2019-05-18T14:31:19.936Z,7.75
2019-05-18T14:34:14.321Z,6.95
2019-05-18T14:37:36.134Z,5.07
2019-05-18T14:40:42.890Z,5.30
2019-05-18T14:47:33.198Z,4.30
2019-05-18T14:50:32.553Z,4.93
2019-05-18T14:53:54.077Z,11.30
2019-05-18T14:57:27.649Z,4.90
2019-05-18T15:00:52.763Z,11.47
2019-05-18T15:03:39.110Z,5.17
2019-05-18T15:06:29.959Z,4.77
2019-05-18T15:09:35.483Z,4.10
2019-05-18T15:12:24.372Z,6.83
2019-05-18T15:15:39.361Z,4.20
2019-05-18T15:18:45.287Z,5.83
2019-05-18T15:21:25.654Z,4.53
2019-05-18T15:24:23.909Z,3.87
2019-05-18T15:27:24.347Z,4.87
2019-05-18T15:30:54.325Z,4.23
2019-05-18T15:36:56.641Z,5.10
2019-05-18T15:40:33.045Z,3.80
2019-05-18T15:44:19.277Z,7.17
2019-05-18T15:47:30.921Z,3.13
2019-05-18T15:50:38.845Z,5.00
2019-05-18T15:53:48.976Z,4.47
2019-05-18T15:56:48.163Z,6.50
2019-05-18T15:59:58.928Z,4.50
2019-05-18T16:02:54.154Z,4.33
2019-05-18T16:05:54.607Z,7.17
2019-05-18T16:08:57.677Z,5.63
2019-05-18T16:11:49.907Z,4.93
2019-05-18T16:14:50.978Z,5.30
2019-05-18T16:18:04.431Z,9.63
2019-05-18T16:21:29.911Z,8.20
2019-05-18T16:24:37.280Z,11.57
2019-05-18T16:27:37.236Z,10.43
2019-05-18T16:31:20.892Z,13.80
2019-05-18T16:34:22.017Z,6.10
2019-05-18T16:37:27.147Z,6.57
2019-05-18T16:40:29.007Z,5.00
2019-05-18T16:43:44.404Z,5.70
2019-05-18T16:46:54.933Z,8.00
2019-05-18T16:49:56.981Z,6.73
2019-05-18T16:52:41.520Z,11.73
2019-05-18T16:55:29.895Z,3.90
2019-05-18T16:58:49.952Z,5.00
2019-05-18T17:02:05.779Z,8.10
2019-05-18T17:05:40.027Z,3.63
2019-05-18T17:08:55.968Z,4.60
2019-05-18T17:12:12.602Z,8.60
2019-05-18T17:16:31.672Z,6.50
2019-05-18T17:20:04.872Z,12.10
2019-05-18T17:23:16.604Z,6.83
2019-05-18T17:29:17.024Z,10.73
2019-05-18T17:32:34.936Z,7.87
2019-05-18T17:32:52.634Z,9.10
2019-05-18T17:36:36.903Z,7.40
2019-05-18T17:40:37.566Z,15.03
2019-05-18T17:59:26.261Z,15.93
2019-05-18T18:03:11.686Z,12.50
2019-05-18T18:10:39.461Z,13.27
2019-05-18T18:13:49.746Z,14.17
2019-05-18T18:16:52.400Z,10.90
2019-05-18T18:23:33.962Z,8.97
2019-05-18T18:35:02.818Z,9.83
2019-05-18T18:38:11.806Z,9.07
2019-05-18T18:41:45.313Z,10.53
2019-05-18T18:45:25.255Z,10.73
2019-05-18T18:49:15.236Z,14.77
2019-05-18T18:52:49.278Z,9.47
2019-05-18T18:56:35.871Z,10.60
2019-05-18T18:59:57.075Z,10.47
2019-05-18T19:03:21.409Z,11.13
2019-05-18T19:10:16.456Z,11.07
2019-05-18T19:13:35.029Z,9.50
2019-05-18T19:16:49.396Z,10.67
2019-05-18T19:19:40.125Z,10.00
2019-05-18T19:23:14.823Z,9.63
2019-05-18T19:26:11.974Z,19.37
2019-05-18T19:29:31.477Z,20.33
2019-05-18T19:32:34.983Z,11.73
2019-05-18T19:35:38.443Z,13.37
2019-05-18T19:38:54.526Z,14.10
2019-05-18T19:45:15.819Z,12.13
2019-05-18T19:48:00.539Z,13.53
2019-05-18T19:51:26.427Z,12.00
2019-05-18T20:02:01.038Z,12.93
2019-05-18T20:05:14.744Z,10.70
2019-05-18T20:08:02.404Z,15.53
2019-05-18T20:18:41.888Z,14.73
2019-05-18T20:25:57.263Z,14.00
2019-05-18T20:29:02.485Z,16.37
2019-05-18T20:32:25.166Z,16.03
2019-05-18T20:35:47.098Z,16.40
2019-05-18T20:39:15.339Z,15.50
2019-05-18T20:42:00.721Z,17.40
2019-05-18T20:44:44.331Z,17.70
2019-05-18T20:47:42.121Z,16.60
2019-05-18T20:51:03.511Z,17.77
2019-05-18T20:54:09.965Z,18.53
2019-05-18T20:57:19.123Z,18.30
2019-05-18T21:00:40.492Z,19.03
2019-05-18T21:04:07.727Z,16.93
2019-05-18T21:06:30.659Z,18.03
2019-05-18T21:09:10.922Z,16.40
2019-05-18T21:11:50.145Z,16.00
2019-05-18T21:14:33.753Z,14.17
2019-05-18T21:20:25.889Z,17.70
2019-05-18T21:23:19.428Z,18.20
2019-05-18T21:26:36.734Z,18.83
2019-05-18T21:30:04.968Z,19.07
2019-05-18T21:36:29.423Z,18.27
2019-05-18T21:39:21.533Z,19.37
2019-05-18T21:42:34.710Z,18.40
2019-05-18T21:45:51.055Z,20.93
2019-05-18T21:52:11.519Z,18.03
2019-05-18T21:55:24.851Z,18.10
2019-05-18T21:58:35.548Z,18.70
2019-05-18T22:01:18.574Z,23.50
2019-05-18T22:04:51.025Z,20.33
2019-05-18T22:12:02.034Z,21.07
2019-05-18T22:18:42.557Z,22.93
2019-05-18T22:21:31.744Z,25.20
2019-05-18T22:25:05.455Z,22.27
2019-05-18T22:28:26.440Z,23.17
2019-05-18T22:31:19.783Z,16.53
2019-05-18T22:33:59.146Z,20.33
2019-05-18T22:37:46.085Z,16.77
2019-05-18T22:43:59.707Z,18.70
2019-05-18T22:46:45.224Z,17.00
2019-05-18T22:52:59.041Z,17.30
2019-05-18T22:55:37.187Z,18.03
2019-05-18T22:58:27.699Z,18.17
2019-05-18T23:01:25.068Z,18.70
2019-05-18T23:04:28.909Z,21.87
2019-05-18T23:07:50.686Z,19.87
2019-05-18T23:10:36.091Z,21.50
2019-05-18T23:17:23.335Z,24.00
2019-05-18T23:20:13.005Z,22.40
2019-05-18T23:26:39.140Z,25.13
2019-05-18T23:29:48.016Z,32.70
2019-05-18T23:32:38.291Z,28.57
2019-05-18T23:38:25.171Z,33.87
2019-05-18T23:41:07.599Z,32.67
2019-05-18T23:43:59.232Z,33.23
2019-05-18T23:46:43.266Z,28.67
2019-05-18T23:49:32.838Z,34.23
2019-05-18T23:52:39.249Z,37.03
2019-05-18T23:55:27.185Z,31.80
2019-05-18T23:58:21.408Z,34.23
